CGYNG CYXU-CYXU
Flight info
| Callsign | CGYNG |
|---|---|
| Flight time | 0h 6m |
| Altitude | 1900 |
| Route | CYXU/15 |
| Aircraft | BE55 |
Departure
| Time | 2026-04-22 02:46 |
|---|---|
| Airport | London International Airport (CYXU) |
Arrival
| Time | 2026-04-22 02:52 |
|---|---|
| Airport | London International Airport (CYXU) |
| Time | Latitude | Longitude | Altitude | Speed | Heading |
|---|---|---|---|---|---|
| 2026-04-22 02:41 | 43.03183 | -81.15308 | 896 ft | 10 kts | 115° |
| 2026-04-22 02:41 | 43.03208 | -81.15314 | 896 ft | 10 kts | 227° |
| 2026-04-22 02:41 | 43.03205 | -81.15279 | 896 ft | 6 kts | 316° |
| 2026-04-22 02:41 | 43.03239 | -81.15223 | 896 ft | 10 kts | 57° |
| 2026-04-22 02:42 | 43.03310 | -81.15219 | 896 ft | 12 kts | 314° |
| 2026-04-22 02:42 | 43.03371 | -81.15292 | 896 ft | 14 kts | 324° |
| 2026-04-22 02:42 | 43.03459 | -81.15398 | 896 ft | 18 kts | 321° |
| 2026-04-22 02:42 | 43.03554 | -81.15510 | 896 ft | 17 kts | 318° |
| 2026-04-22 02:43 | 43.03642 | -81.15616 | 896 ft | 16 kts | 320° |
| 2026-04-22 02:43 | 43.03726 | -81.15717 | 896 ft | 19 kts | 315° |
| 2026-04-22 02:43 | 43.03823 | -81.15835 | 895 ft | 18 kts | 318° |
| 2026-04-22 02:43 | 43.03913 | -81.15943 | 895 ft | 17 kts | 320° |
| 2026-04-22 02:44 | 43.04006 | -81.16015 | 896 ft | 15 kts | 351° |
| 2026-04-22 02:44 | 43.04051 | -81.16011 | 896 ft | 0 kts | 355° |
| 2026-04-22 02:44 | 43.04052 | -81.16011 | 896 ft | 0 kts | 1° |
| 2026-04-22 02:44 | 43.04054 | -81.16011 | 896 ft | 0 kts | 4° |
| 2026-04-22 02:45 | 43.04056 | -81.16011 | 896 ft | 0 kts | 7° |
| 2026-04-22 02:45 | 43.04057 | -81.16010 | 896 ft | 1 kts | 8° |
| 2026-04-22 02:45 | 43.04124 | -81.15913 | 897 ft | 17 kts | 102° |
| 2026-04-22 02:46 | 43.03908 | -81.15616 | 898 ft | 93 kts | 137° |
| 2026-04-22 02:46 | 43.03276 | -81.14937 | 1256 ft | 128 kts | 143° |
| 2026-04-22 02:46 | 43.02685 | -81.14009 | 1588 ft | 137 kts | 109° |
| 2026-04-22 02:46 | 43.02895 | -81.12764 | 1773 ft | 142 kts | 57° |
| 2026-04-22 02:47 | 43.03730 | -81.12086 | 1911 ft | 154 kts | 4° |
| 2026-04-22 02:47 | 43.04781 | -81.12410 | 2134 ft | 150 kts | 348° |
| 2026-04-22 02:47 | 43.05781 | -81.12785 | 2409 ft | 149 kts | 343° |
| 2026-04-22 02:47 | 43.06753 | -81.13400 | 2370 ft | 150 kts | 329° |
| 2026-04-22 02:48 | 43.07484 | -81.14303 | 2299 ft | 131 kts | 288° |
| 2026-04-22 02:48 | 43.07188 | -81.15286 | 1907 ft | 119 kts | 221° |
| 2026-04-22 02:48 | 43.06550 | -81.16007 | 1668 ft | 116 kts | 213° |
| 2026-04-22 02:48 | 43.05926 | -81.16546 | 1488 ft | 98 kts | 199° |
| 2026-04-22 02:49 | 43.05281 | -81.16719 | 1298 ft | 94 kts | 174° |
| 2026-04-22 02:49 | 43.04651 | -81.16470 | 1118 ft | 97 kts | 148° |
| 2026-04-22 02:49 | 43.04141 | -81.15895 | 910 ft | 91 kts | 138° |
| 2026-04-22 02:49 | 43.03757 | -81.15430 | 895 ft | 72 kts | 140° |
| 2026-04-22 02:50 | 43.03253 | -81.14848 | 1043 ft | 108 kts | 138° |
| 2026-04-22 02:50 | 43.02682 | -81.14125 | 1298 ft | 116 kts | 131° |
| 2026-04-22 02:50 | 43.02438 | -81.12953 | 1582 ft | 146 kts | 79° |
| 2026-04-22 02:50 | 43.03226 | -81.12128 | 1961 ft | 163 kts | 6° |
| 2026-04-22 02:51 | 43.04286 | -81.12914 | 2060 ft | 184 kts | 326° |
| 2026-04-22 02:51 | 43.05335 | -81.13962 | 2016 ft | 175 kts | 320° |
| 2026-04-22 02:51 | 43.05536 | -81.15406 | 1670 ft | 155 kts | 254° |
| 2026-04-22 02:51 | 43.04992 | -81.16338 | 1319 ft | 109 kts | 192° |
| 2026-04-22 02:52 | 43.04338 | -81.16116 | 978 ft | 96 kts | 145° |
| 2026-04-22 02:52 | 43.03885 | -81.15586 | 894 ft | 68 kts | 139° |
| 2026-04-22 02:52 | 43.03761 | -81.15439 | 895 ft | 0 kts | 137° |
| 2026-04-22 02:52 | 43.03724 | -81.15397 | 895 ft | 42 kts | 140° |
| 2026-04-22 02:53 | 43.03279 | -81.14855 | 1109 ft | 111 kts | 138° |
| 2026-04-22 02:53 | 43.02619 | -81.14067 | 1537 ft | 134 kts | 139° |
| 2026-04-22 02:53 | 43.01916 | -81.13192 | 2042 ft | 146 kts | 136° |
| 2026-04-22 02:53 | 43.01199 | -81.12328 | 2353 ft | 116 kts | 136° |
| 2026-04-22 02:54 | 43.00675 | -81.11651 | 2426 ft | 101 kts | 130° |
| 2026-04-22 02:54 | 43.00259 | -81.10915 | 2549 ft | 97 kts | 126° |
| 2026-04-22 02:54 | 43.00022 | -81.10100 | 2670 ft | 98 kts | 90° |
| 2026-04-22 02:54 | 43.00316 | -81.09209 | 2805 ft | 108 kts | 62° |
| 2026-04-22 02:55 | 43.00815 | -81.08374 | 2886 ft | 118 kts | 50° |
| 2026-04-22 02:55 | 43.01538 | -81.08034 | 2865 ft | 113 kts | 340° |
| 2026-04-22 02:55 | 43.02260 | -81.08343 | 2741 ft | 108 kts | 340° |
| 2026-04-22 02:55 | 43.02999 | -81.08631 | 2217 ft | 109 kts | 340° |
| 2026-04-22 02:56 | 43.03643 | -81.09028 | 1941 ft | 96 kts | 336° |
| 2026-04-22 02:56 | 43.04308 | -81.09413 | 1974 ft | 109 kts | 336° |
| 2026-04-22 02:56 | 43.04933 | -81.09897 | 2194 ft | 101 kts | 330° |
| 2026-04-22 02:56 | 43.05505 | -81.10430 | 2191 ft | 97 kts | 325° |
| 2026-04-22 02:57 | 43.06070 | -81.10927 | 2184 ft | 98 kts | 328° |
| 2026-04-22 02:57 | 43.06663 | -81.11462 | 2298 ft | 106 kts | 325° |
| 2026-04-22 02:57 | 43.07243 | -81.12095 | 2492 ft | 104 kts | 321° |
| 2026-04-22 02:57 | 43.07812 | -81.12741 | 2637 ft | 112 kts | 315° |
| 2026-04-22 02:58 | 43.08352 | -81.13514 | 2777 ft | 116 kts | 306° |
| 2026-04-22 02:58 | 43.08891 | -81.14317 | 2928 ft | 113 kts | 303° |
| 2026-04-22 02:58 | 43.09473 | -81.15009 | 3086 ft | 114 kts | 317° |
| 2026-04-22 02:58 | 43.10139 | -81.15615 | 3194 ft | 115 kts | 318° |
| 2026-04-22 02:59 | 43.10262 | -81.16504 | 3120 ft | 103 kts | 226° |
| 2026-04-22 02:59 | 43.09727 | -81.17122 | 3057 ft | 108 kts | 215° |
| 2026-04-22 02:59 | 43.09112 | -81.17780 | 2894 ft | 108 kts | 209° |
| 2026-04-22 02:59 | 43.08482 | -81.18277 | 2866 ft | 108 kts | 209° |
| 2026-04-22 03:00 | 43.07761 | -81.18476 | 2737 ft | 111 kts | 174° |
| 2026-04-22 03:00 | 43.06963 | -81.18380 | 2387 ft | 119 kts | 172° |
| 2026-04-22 03:00 | 43.06193 | -81.18022 | 1990 ft | 117 kts | 152° |
| 2026-04-22 03:00 | 43.05518 | -81.17449 | 1673 ft | 113 kts | 144° |
| 2026-04-22 03:01 | 43.04887 | -81.16792 | 1438 ft | 110 kts | 132° |
| 2026-04-22 03:01 | 43.04751 | -81.15850 | 1241 ft | 106 kts | 67° |
| 2026-04-22 03:01 | 43.05336 | -81.15425 | 1148 ft | 115 kts | 345° |
| 2026-04-22 03:01 | 43.05627 | -81.16230 | 1216 ft | 103 kts | 218° |
| 2026-04-22 03:02 | 43.04945 | -81.16346 | 1175 ft | 100 kts | 176° |
| 2026-04-22 03:02 | 43.04290 | -81.16059 | 991 ft | 97 kts | 143° |
| 2026-04-22 03:02 | 43.03846 | -81.15549 | 895 ft | 66 kts | 139° |
| 2026-04-22 03:02 | 43.03595 | -81.15254 | 897 ft | 38 kts | 143° |
| 2026-04-22 03:03 | 43.03401 | -81.15048 | 897 ft | 29 kts | 168° |
| 2026-04-22 03:03 | 43.03264 | -81.15192 | 896 ft | 24 kts | 232° |
| 2026-04-22 03:03 | 43.03227 | -81.15344 | 896 ft | 13 kts | 5° |
| 2026-04-22 03:03 | 43.03224 | -81.15317 | 896 ft | 0 kts | 155° |